sensor_id;sensor_type;location;lat;lon;timestamp;temperature;humidity
52675;DHT22;38569;52.722;6.440;2022-08-03T00:01:52;18.70;99.90
52675;DHT22;38569;52.722;6.440;2022-08-03T00:04:17;18.60;99.90
52675;DHT22;38569;52.722;6.440;2022-08-03T00:06:43;18.70;99.90
52675;DHT22;38569;52.722;6.440;2022-08-03T00:09:09;18.80;99.90
52675;DHT22;38569;52.722;6.440;2022-08-03T00:11:36;18.80;99.90
52675;DHT22;38569;52.722;6.440;2022-08-03T00:14:03;18.80;99.90
52675;DHT22;38569;52.722;6.440;2022-08-03T00:16:29;18.80;99.90
52675;DHT22;38569;52.722;6.440;2022-08-03T00:18:55;18.80;99.90
52675;DHT22;38569;52.722;6.440;2022-08-03T00:21:20;18.70;99.90
52675;DHT22;38569;52.722;6.440;2022-08-03T00:23:46;18.80;99.90
52675;DHT22;38569;52.722;6.440;2022-08-03T00:26:12;18.70;99.90
52675;DHT22;38569;52.722;6.440;2022-08-03T00:28:37;18.70;99.90
52675;DHT22;38569;52.722;6.440;2022-08-03T00:31:03;18.70;99.90
52675;DHT22;38569;52.722;6.440;2022-08-03T00:33:29;18.70;99.90
52675;DHT22;38569;52.722;6.440;2022-08-03T00:35:54;18.70;99.90
52675;DHT22;38569;52.722;6.440;2022-08-03T00:38:20;18.80;99.90
52675;DHT22;38569;52.722;6.440;2022-08-03T00:40:46;18.80;99.90
52675;DHT22;38569;52.722;6.440;2022-08-03T00:43:11;18.80;99.90
52675;DHT22;38569;52.722;6.440;2022-08-03T00:45:40;18.90;99.90
52675;DHT22;38569;52.722;6.440;2022-08-03T00:48:09;18.90;99.90
52675;DHT22;38569;52.722;6.440;2022-08-03T00:50:39;18.90;99.90
52675;DHT22;38569;52.722;6.440;2022-08-03T00:53:06;18.90;99.90
52675;DHT22;38569;52.722;6.440;2022-08-03T00:55:32;18.90;99.90
52675;DHT22;38569;52.722;6.440;2022-08-03T00:58:00;18.90;99.90
52675;DHT22;38569;52.722;6.440;2022-08-03T01:00:29;18.90;99.90
52675;DHT22;38569;52.722;6.440;2022-08-03T01:02:55;18.80;99.90
52675;DHT22;38569;52.722;6.440;2022-08-03T01:05:21;18.80;99.90
52675;DHT22;38569;52.722;6.440;2022-08-03T01:08:07;18.80;99.90
52675;DHT22;38569;52.722;6.440;2022-08-03T01:16:18;18.60;99.90
52675;DHT22;38569;52.722;6.440;2022-08-03T01:19:30;18.60;99.90
52675;DHT22;38569;52.722;6.440;2022-08-03T01:22:36;18.60;99.90
52675;DHT22;38569;52.722;6.440;2022-08-03T01:27:53;18.50;99.90
52675;DHT22;38569;52.722;6.440;2022-08-03T01:30:30;18.50;99.90
52675;DHT22;38569;52.722;6.440;2022-08-03T01:33:08;18.50;99.90
52675;DHT22;38569;52.722;6.440;2022-08-03T01:36:04;18.50;99.90
52675;DHT22;38569;52.722;6.440;2022-08-03T01:38:33;18.40;99.90
52675;DHT22;38569;52.722;6.440;2022-08-03T01:41:06;18.40;99.90
52675;DHT22;38569;52.722;6.440;2022-08-03T01:43:34;18.40;99.90
52675;DHT22;38569;52.722;6.440;2022-08-03T01:46:02;18.30;99.90
52675;DHT22;38569;52.722;6.440;2022-08-03T01:48:29;18.30;99.90
52675;DHT22;38569;52.722;6.440;2022-08-03T01:50:56;18.30;99.90
52675;DHT22;38569;52.722;6.440;2022-08-03T01:53:23;18.20;99.90
52675;DHT22;38569;52.722;6.440;2022-08-03T01:55:53;18.20;99.90
52675;DHT22;38569;52.722;6.440;2022-08-03T01:58:21;18.10;99.90
52675;DHT22;38569;52.722;6.440;2022-08-03T02:00:49;18.10;99.90
52675;DHT22;38569;52.722;6.440;2022-08-03T02:03:16;18.10;99.90
52675;DHT22;38569;52.722;6.440;2022-08-03T02:05:44;18.10;99.90
52675;DHT22;38569;52.722;6.440;2022-08-03T02:08:12;18.10;99.90
52675;DHT22;38569;52.722;6.440;2022-08-03T02:10:41;18.10;99.90
52675;DHT22;38569;52.722;6.440;2022-08-03T02:13:08;18.00;99.90
52675;DHT22;38569;52.722;6.440;2022-08-03T02:15:38;18.10;99.90
52675;DHT22;38569;52.722;6.440;2022-08-03T02:18:07;18.00;99.90
52675;DHT22;38569;52.722;6.440;2022-08-03T02:20:33;18.00;99.90
52675;DHT22;38569;52.722;6.440;2022-08-03T02:23:02;17.90;99.90
52675;DHT22;38569;52.722;6.440;2022-08-03T02:25:29;17.90;99.90
52675;DHT22;38569;52.722;6.440;2022-08-03T02:28:21;17.90;99.90
52675;DHT22;38569;52.722;6.440;2022-08-03T02:30:53;17.90;99.90
52675;DHT22;38569;52.722;6.440;2022-08-03T02:33:27;18.00;99.90
52675;DHT22;38569;52.722;6.440;2022-08-03T02:35:56;18.00;99.90
52675;DHT22;38569;52.722;6.440;2022-08-03T02:38:27;18.00;99.90
52675;DHT22;38569;52.722;6.440;2022-08-03T02:40:54;18.00;99.90
52675;DHT22;38569;52.722;6.440;2022-08-03T02:43:23;18.00;99.90
52675;DHT22;38569;52.722;6.440;2022-08-03T02:45:50;17.90;99.90
52675;DHT22;38569;52.722;6.440;2022-08-03T02:48:20;17.90;99.90
52675;DHT22;38569;52.722;6.440;2022-08-03T02:50:50;17.90;99.90
52675;DHT22;38569;52.722;6.440;2022-08-03T02:53:18;17.90;99.90
52675;DHT22;38569;52.722;6.440;2022-08-03T02:55:46;17.90;99.90
52675;DHT22;38569;52.722;6.440;2022-08-03T02:58:15;17.90;99.90
52675;DHT22;38569;52.722;6.440;2022-08-03T03:00:43;17.90;99.90
52675;DHT22;38569;52.722;6.440;2022-08-03T03:03:10;17.90;99.90
52675;DHT22;38569;52.722;6.440;2022-08-03T03:05:36;17.90;99.90
52675;DHT22;38569;52.722;6.440;2022-08-03T03:08:03;17.90;99.90
52675;DHT22;38569;52.722;6.440;2022-08-03T03:10:29;17.90;99.90
52675;DHT22;38569;52.722;6.440;2022-08-03T03:12:57;17.90;99.90
52675;DHT22;38569;52.722;6.440;2022-08-03T03:15:25;17.90;99.90
52675;DHT22;38569;52.722;6.440;2022-08-03T03:17:52;17.90;99.90
52675;DHT22;38569;52.722;6.440;2022-08-03T03:20:20;17.90;99.90
52675;DHT22;38569;52.722;6.440;2022-08-03T03:22:47;17.90;99.90
52675;DHT22;38569;52.722;6.440;2022-08-03T03:25:14;17.90;99.90
52675;DHT22;38569;52.722;6.440;2022-08-03T03:27:40;17.90;99.90
52675;DHT22;38569;52.722;6.440;2022-08-03T03:30:07;17.90;99.90
52675;DHT22;38569;52.722;6.440;2022-08-03T03:32:33;17.80;99.90
52675;DHT22;38569;52.722;6.440;2022-08-03T03:35:01;17.80;99.90
52675;DHT22;38569;52.722;6.440;2022-08-03T03:37:29;17.80;99.90
52675;DHT22;38569;52.722;6.440;2022-08-03T03:39:55;17.80;99.90
52675;DHT22;38569;52.722;6.440;2022-08-03T03:42:21;17.80;99.90
52675;DHT22;38569;52.722;6.440;2022-08-03T03:44:47;17.80;99.90
52675;DHT22;38569;52.722;6.440;2022-08-03T03:47:12;17.70;99.90
52675;DHT22;38569;52.722;6.440;2022-08-03T03:49:39;17.70;99.90
52675;DHT22;38569;52.722;6.440;2022-08-03T03:52:05;17.70;99.90
52675;DHT22;38569;52.722;6.440;2022-08-03T03:54:41;17.70;99.90
52675;DHT22;38569;52.722;6.440;2022-08-03T03:57:07;17.70;99.90
52675;DHT22;38569;52.722;6.440;2022-08-03T03:59:37;17.70;99.90
52675;DHT22;38569;52.722;6.440;2022-08-03T04:02:05;17.70;99.90
52675;DHT22;38569;52.722;6.440;2022-08-03T04:04:31;17.70;99.90
52675;DHT22;38569;52.722;6.440;2022-08-03T04:07:17;17.70;99.90
52675;DHT22;38569;52.722;6.440;2022-08-03T04:10:02;17.70;99.90
52675;DHT22;38569;52.722;6.440;2022-08-03T04:12:47;17.80;99.90
52675;DHT22;38569;52.722;6.440;2022-08-03T04:15:17;17.80;99.90
52675;DHT22;38569;52.722;6.440;2022-08-03T04:17:47;17.80;99.90
52675;DHT22;38569;52.722;6.440;2022-08-03T04:20:15;17.80;99.90
52675;DHT22;38569;52.722;6.440;2022-08-03T04:22:42;17.90;99.90
52675;DHT22;38569;52.722;6.440;2022-08-03T04:25:09;17.90;99.90
52675;DHT22;38569;52.722;6.440;2022-08-03T04:27:39;18.00;99.90
52675;DHT22;38569;52.722;6.440;2022-08-03T04:30:06;18.00;99.90
52675;DHT22;38569;52.722;6.440;2022-08-03T04:32:34;18.20;99.90
52675;DHT22;38569;52.722;6.440;2022-08-03T04:35:01;18.30;99.90
52675;DHT22;38569;52.722;6.440;2022-08-03T04:40:05;18.40;99.90
52675;DHT22;38569;52.722;6.440;2022-08-03T04:42:32;18.50;99.90
52675;DHT22;38569;52.722;6.440;2022-08-03T04:44:58;18.50;99.90
52675;DHT22;38569;52.722;6.440;2022-08-03T04:47:24;18.60;99.90
52675;DHT22;38569;52.722;6.440;2022-08-03T04:49:50;19.00;99.90
52675;DHT22;38569;52.722;6.440;2022-08-03T04:52:16;19.70;99.90
52675;DHT22;38569;52.722;6.440;2022-08-03T04:54:43;20.30;99.90
52675;DHT22;38569;52.722;6.440;2022-08-03T04:57:09;20.70;99.90
52675;DHT22;38569;52.722;6.440;2022-08-03T04:59:35;20.60;99.90
52675;DHT22;38569;52.722;6.440;2022-08-03T05:02:01;20.40;99.90
52675;DHT22;38569;52.722;6.440;2022-08-03T05:04:27;20.20;99.90
52675;DHT22;38569;52.722;6.440;2022-08-03T05:06:52;19.90;99.90
52675;DHT22;38569;52.722;6.440;2022-08-03T05:09:18;19.80;99.90
52675;DHT22;38569;52.722;6.440;2022-08-03T05:11:44;19.70;99.90
52675;DHT22;38569;52.722;6.440;2022-08-03T05:14:10;19.60;99.90
52675;DHT22;38569;52.722;6.440;2022-08-03T05:16:36;19.50;99.90
52675;DHT22;38569;52.722;6.440;2022-08-03T05:19:02;19.50;99.90
52675;DHT22;38569;52.722;6.440;2022-08-03T05:21:27;19.50;99.90
52675;DHT22;38569;52.722;6.440;2022-08-03T05:23:53;19.40;99.90
52675;DHT22;38569;52.722;6.440;2022-08-03T05:26:19;19.40;99.90
52675;DHT22;38569;52.722;6.440;2022-08-03T05:28:45;19.50;99.90
52675;DHT22;38569;52.722;6.440;2022-08-03T05:31:11;19.50;99.90
52675;DHT22;38569;52.722;6.440;2022-08-03T05:33:38;19.50;99.90
52675;DHT22;38569;52.722;6.440;2022-08-03T05:36:04;19.50;99.90
52675;DHT22;38569;52.722;6.440;2022-08-03T05:38:31;19.60;99.90
52675;DHT22;38569;52.722;6.440;2022-08-03T05:40:57;19.60;99.90
52675;DHT22;38569;52.722;6.440;2022-08-03T05:43:23;19.70;99.90
52675;DHT22;38569;52.722;6.440;2022-08-03T05:45:49;19.70;99.90
52675;DHT22;38569;52.722;6.440;2022-08-03T05:48:14;19.80;99.90
52675;DHT22;38569;52.722;6.440;2022-08-03T05:50:40;19.80;99.90
52675;DHT22;38569;52.722;6.440;2022-08-03T05:53:06;19.80;99.90
52675;DHT22;38569;52.722;6.440;2022-08-03T05:55:31;19.90;99.90
52675;DHT22;38569;52.722;6.440;2022-08-03T05:57:57;19.90;99.90
52675;DHT22;38569;52.722;6.440;2022-08-03T06:00:23;19.90;99.90
52675;DHT22;38569;52.722;6.440;2022-08-03T06:02:49;20.00;99.90
52675;DHT22;38569;52.722;6.440;2022-08-03T06:05:15;20.00;99.90
52675;DHT22;38569;52.722;6.440;2022-08-03T06:07:40;20.20;99.90
52675;DHT22;38569;52.722;6.440;2022-08-03T06:10:07;20.20;99.90
52675;DHT22;38569;52.722;6.440;2022-08-03T06:12:33;20.40;99.90
52675;DHT22;38569;52.722;6.440;2022-08-03T06:15:01;20.50;99.90
52675;DHT22;38569;52.722;6.440;2022-08-03T06:17:27;20.70;99.90
52675;DHT22;38569;52.722;6.440;2022-08-03T06:19:53;20.70;99.90
52675;DHT22;38569;52.722;6.440;2022-08-03T06:22:19;20.90;99.90
52675;DHT22;38569;52.722;6.440;2022-08-03T06:24:45;20.90;99.90
52675;DHT22;38569;52.722;6.440;2022-08-03T06:27:10;20.90;99.90
52675;DHT22;38569;52.722;6.440;2022-08-03T06:29:37;21.10;99.90
52675;DHT22;38569;52.722;6.440;2022-08-03T06:32:02;21.20;99.90
52675;DHT22;38569;52.722;6.440;2022-08-03T06:34:28;21.40;99.90
52675;DHT22;38569;52.722;6.440;2022-08-03T06:36:54;21.50;99.90
52675;DHT22;38569;52.722;6.440;2022-08-03T06:39:20;21.60;99.90
52675;DHT22;38569;52.722;6.440;2022-08-03T06:41:46;21.80;99.90
52675;DHT22;38569;52.722;6.440;2022-08-03T06:44:12;21.80;99.90
52675;DHT22;38569;52.722;6.440;2022-08-03T06:46:38;21.80;99.90
52675;DHT22;38569;52.722;6.440;2022-08-03T06:49:05;21.80;99.90
52675;DHT22;38569;52.722;6.440;2022-08-03T06:51:30;21.80;99.90
52675;DHT22;38569;52.722;6.440;2022-08-03T06:53:56;22.00;99.90
52675;DHT22;38569;52.722;6.440;2022-08-03T06:56:22;22.30;99.90
52675;DHT22;38569;52.722;6.440;2022-08-03T06:58:47;22.60;99.90
52675;DHT22;38569;52.722;6.440;2022-08-03T07:01:14;22.90;99.90
52675;DHT22;38569;52.722;6.440;2022-08-03T07:03:39;23.50;99.90
52675;DHT22;38569;52.722;6.440;2022-08-03T07:06:05;24.20;99.90
52675;DHT22;38569;52.722;6.440;2022-08-03T07:08:32;24.60;99.90
52675;DHT22;38569;52.722;6.440;2022-08-03T07:10:58;24.90;99.90
52675;DHT22;38569;52.722;6.440;2022-08-03T07:13:23;25.10;99.90
52675;DHT22;38569;52.722;6.440;2022-08-03T07:15:49;25.20;99.90
52675;DHT22;38569;52.722;6.440;2022-08-03T07:18:15;25.40;99.90
52675;DHT22;38569;52.722;6.440;2022-08-03T07:20:41;25.30;99.90
52675;DHT22;38569;52.722;6.440;2022-08-03T07:23:06;25.60;99.90
52675;DHT22;38569;52.722;6.440;2022-08-03T07:25:32;25.80;99.90
52675;DHT22;38569;52.722;6.440;2022-08-03T07:27:58;26.30;99.90
52675;DHT22;38569;52.722;6.440;2022-08-03T07:30:24;26.60;99.90
52675;DHT22;38569;52.722;6.440;2022-08-03T07:32:49;27.10;99.90
52675;DHT22;38569;52.722;6.440;2022-08-03T07:35:15;27.50;99.90
52675;DHT22;38569;52.722;6.440;2022-08-03T07:37:41;27.70;99.90
52675;DHT22;38569;52.722;6.440;2022-08-03T07:40:06;27.90;99.90
52675;DHT22;38569;52.722;6.440;2022-08-03T07:42:32;28.10;99.90
52675;DHT22;38569;52.722;6.440;2022-08-03T07:44:58;28.20;99.90
52675;DHT22;38569;52.722;6.440;2022-08-03T07:47:26;28.00;99.90
52675;DHT22;38569;52.722;6.440;2022-08-03T07:49:53;28.00;99.90
52675;DHT22;38569;52.722;6.440;2022-08-03T07:52:19;28.30;99.90
52675;DHT22;38569;52.722;6.440;2022-08-03T07:55:04;28.80;99.90
52675;DHT22;38569;52.722;6.440;2022-08-03T07:57:31;29.40;99.90
52675;DHT22;38569;52.722;6.440;2022-08-03T07:59:56;29.60;99.50
52675;DHT22;38569;52.722;6.440;2022-08-03T08:02:22;29.70;98.90
52675;DHT22;38569;52.722;6.440;2022-08-03T08:04:48;30.10;97.90
52675;DHT22;38569;52.722;6.440;2022-08-03T08:07:14;30.70;96.30
52675;DHT22;38569;52.722;6.440;2022-08-03T08:09:39;30.90;95.40
52675;DHT22;38569;52.722;6.440;2022-08-03T08:12:05;31.20;94.10
52675;DHT22;38569;52.722;6.440;2022-08-03T08:14:33;31.60;92.60
52675;DHT22;38569;52.722;6.440;2022-08-03T08:16:59;31.80;92.20
52675;DHT22;38569;52.722;6.440;2022-08-03T08:19:24;32.30;90.90
52675;DHT22;38569;52.722;6.440;2022-08-03T08:21:50;32.30;89.60
52675;DHT22;38569;52.722;6.440;2022-08-03T08:24:16;32.60;88.20
52675;DHT22;38569;52.722;6.440;2022-08-03T08:26:41;32.40;87.10
52675;DHT22;38569;52.722;6.440;2022-08-03T08:29:07;32.10;86.70
52675;DHT22;38569;52.722;6.440;2022-08-03T08:31:33;31.80;86.70
52675;DHT22;38569;52.722;6.440;2022-08-03T08:33:58;31.80;87.60
52675;DHT22;38569;52.722;6.440;2022-08-03T08:36:24;31.90;86.40
52675;DHT22;38569;52.722;6.440;2022-08-03T08:38:50;32.00;86.90
52675;DHT22;38569;52.722;6.440;2022-08-03T08:41:16;32.20;85.60
52675;DHT22;38569;52.722;6.440;2022-08-03T08:43:42;32.20;86.30
52675;DHT22;38569;52.722;6.440;2022-08-03T08:46:11;32.40;85.30
52675;DHT22;38569;52.722;6.440;2022-08-03T08:48:40;32.70;83.80
52675;DHT22;38569;52.722;6.440;2022-08-03T08:51:07;33.00;82.80
52675;DHT22;38569;52.722;6.440;2022-08-03T08:53:35;32.80;82.90
52675;DHT22;38569;52.722;6.440;2022-08-03T08:56:01;32.70;82.60
52675;DHT22;38569;52.722;6.440;2022-08-03T08:58:29;32.90;82.30
52675;DHT22;38569;52.722;6.440;2022-08-03T09:00:57;33.20;80.90
52675;DHT22;38569;52.722;6.440;2022-08-03T09:03:22;33.30;80.70
52675;DHT22;38569;52.722;6.440;2022-08-03T09:05:48;33.40;79.70
52675;DHT22;38569;52.722;6.440;2022-08-03T09:08:14;33.60;78.40
52675;DHT22;38569;52.722;6.440;2022-08-03T09:10:40;33.50;79.40
52675;DHT22;38569;52.722;6.440;2022-08-03T09:13:07;33.80;78.60
52675;DHT22;38569;52.722;6.440;2022-08-03T09:15:33;34.00;76.70
52675;DHT22;38569;52.722;6.440;2022-08-03T09:18:01;33.90;76.70
52675;DHT22;38569;52.722;6.440;2022-08-03T09:20:30;33.80;75.50
52675;DHT22;38569;52.722;6.440;2022-08-03T09:23:06;34.10;75.50
52675;DHT22;38569;52.722;6.440;2022-08-03T09:25:42;34.60;74.50
52675;DHT22;38569;52.722;6.440;2022-08-03T09:28:10;34.70;73.10
52675;DHT22;38569;52.722;6.440;2022-08-03T09:30:38;34.30;73.40
52675;DHT22;38569;52.722;6.440;2022-08-03T09:33:09;34.40;72.80
52675;DHT22;38569;52.722;6.440;2022-08-03T09:35:43;34.40;72.30
52675;DHT22;38569;52.722;6.440;2022-08-03T09:38:18;34.20;72.00
52675;DHT22;38569;52.722;6.440;2022-08-03T09:40:48;34.30;71.90
52675;DHT22;38569;52.722;6.440;2022-08-03T09:43:15;34.60;71.30
52675;DHT22;38569;52.722;6.440;2022-08-03T09:45:42;34.60;70.40
52675;DHT22;38569;52.722;6.440;2022-08-03T09:50:54;34.60;69.70
52675;DHT22;38569;52.722;6.440;2022-08-03T09:53:21;34.20;70.00
52675;DHT22;38569;52.722;6.440;2022-08-03T09:58:15;34.00;71.00
52675;DHT22;38569;52.722;6.440;2022-08-03T10:01:04;33.80;70.60
52675;DHT22;38569;52.722;6.440;2022-08-03T10:03:34;34.00;70.50
52675;DHT22;38569;52.722;6.440;2022-08-03T10:06:19;34.30;70.30
52675;DHT22;38569;52.722;6.440;2022-08-03T10:09:03;34.60;70.70
52675;DHT22;38569;52.722;6.440;2022-08-03T10:11:30;34.80;68.70
52675;DHT22;38569;52.722;6.440;2022-08-03T10:13:57;34.90;69.50
52675;DHT22;38569;52.722;6.440;2022-08-03T10:16:23;35.20;68.60
52675;DHT22;38569;52.722;6.440;2022-08-03T10:18:48;35.40;68.60
52675;DHT22;38569;52.722;6.440;2022-08-03T10:21:16;35.70;67.30
52675;DHT22;38569;52.722;6.440;2022-08-03T10:23:44;35.70;67.20
52675;DHT22;38569;52.722;6.440;2022-08-03T10:26:12;35.40;66.00
52675;DHT22;38569;52.722;6.440;2022-08-03T10:28:47;35.10;66.10
52675;DHT22;38569;52.722;6.440;2022-08-03T10:31:13;34.80;66.10
52675;DHT22;38569;52.722;6.440;2022-08-03T10:33:43;34.80;66.10
52675;DHT22;38569;52.722;6.440;2022-08-03T10:36:10;34.70;65.90
52675;DHT22;38569;52.722;6.440;2022-08-03T10:38:47;34.60;66.50
52675;DHT22;38569;52.722;6.440;2022-08-03T10:41:19;34.80;67.00
52675;DHT22;38569;52.722;6.440;2022-08-03T10:46:33;35.40;64.40
52675;DHT22;38569;52.722;6.440;2022-08-03T10:49:00;35.50;64.20
52675;DHT22;38569;52.722;6.440;2022-08-03T10:51:26;35.60;64.00
52675;DHT22;38569;52.722;6.440;2022-08-03T10:53:57;35.40;64.30
52675;DHT22;38569;52.722;6.440;2022-08-03T11:02:11;35.80;64.50
52675;DHT22;38569;52.722;6.440;2022-08-03T11:04:39;36.20;62.70
52675;DHT22;38569;52.722;6.440;2022-08-03T11:07:22;36.40;61.00
52675;DHT22;38569;52.722;6.440;2022-08-03T11:09:54;36.60;59.70
52675;DHT22;38569;52.722;6.440;2022-08-03T11:12:31;36.30;60.60
52675;DHT22;38569;52.722;6.440;2022-08-03T11:15:00;36.00;59.90
52675;DHT22;38569;52.722;6.440;2022-08-03T11:17:26;36.10;60.30
52675;DHT22;38569;52.722;6.440;2022-08-03T11:19:52;36.10;59.70
52675;DHT22;38569;52.722;6.440;2022-08-03T11:22:19;36.40;59.60
52675;DHT22;38569;52.722;6.440;2022-08-03T11:27:23;36.50;58.20
52675;DHT22;38569;52.722;6.440;2022-08-03T11:29:59;36.00;58.40
52675;DHT22;38569;52.722;6.440;2022-08-03T11:35:09;35.70;58.60
52675;DHT22;38569;52.722;6.440;2022-08-03T11:37:41;35.70;58.40
52675;DHT22;38569;52.722;6.440;2022-08-03T11:40:48;35.70;58.80
52675;DHT22;38569;52.722;6.440;2022-08-03T11:46:02;36.40;57.30
52675;DHT22;38569;52.722;6.440;2022-08-03T11:48:43;36.20;58.10
52675;DHT22;38569;52.722;6.440;2022-08-03T11:51:23;36.40;58.00
52675;DHT22;38569;52.722;6.440;2022-08-03T11:53:54;36.30;57.90
52675;DHT22;38569;52.722;6.440;2022-08-03T11:56:20;36.40;58.20
52675;DHT22;38569;52.722;6.440;2022-08-03T11:58:47;36.40;58.20
52675;DHT22;38569;52.722;6.440;2022-08-03T12:01:13;36.50;58.30
52675;DHT22;38569;52.722;6.440;2022-08-03T12:03:41;36.80;57.70
52675;DHT22;38569;52.722;6.440;2022-08-03T12:06:12;37.00;57.20
52675;DHT22;38569;52.722;6.440;2022-08-03T12:08:40;36.80;56.20
52675;DHT22;38569;52.722;6.440;2022-08-03T12:11:08;36.50;57.30
52675;DHT22;38569;52.722;6.440;2022-08-03T12:13:43;36.80;57.30
52675;DHT22;38569;52.722;6.440;2022-08-03T12:16:09;36.90;56.80
52675;DHT22;38569;52.722;6.440;2022-08-03T12:18:35;36.90;56.30
52675;DHT22;38569;52.722;6.440;2022-08-03T12:21:06;36.90;56.10
52675;DHT22;38569;52.722;6.440;2022-08-03T12:23:33;37.00;55.50
52675;DHT22;38569;52.722;6.440;2022-08-03T12:26:07;37.20;56.20
52675;DHT22;38569;52.722;6.440;2022-08-03T12:28:34;37.40;55.30
52675;DHT22;38569;52.722;6.440;2022-08-03T12:31:09;37.40;55.50
52675;DHT22;38569;52.722;6.440;2022-08-03T12:36:20;36.60;53.90
52675;DHT22;38569;52.722;6.440;2022-08-03T12:38:54;36.40;55.20
52675;DHT22;38569;52.722;6.440;2022-08-03T12:41:29;36.50;54.90
52675;DHT22;38569;52.722;6.440;2022-08-03T12:43:55;36.20;55.60
52675;DHT22;38569;52.722;6.440;2022-08-03T12:46:21;36.30;56.00
52675;DHT22;38569;52.722;6.440;2022-08-03T12:49:02;36.50;55.50
52675;DHT22;38569;52.722;6.440;2022-08-03T12:51:55;36.90;54.60
52675;DHT22;38569;52.722;6.440;2022-08-03T12:54:26;37.20;54.60
52675;DHT22;38569;52.722;6.440;2022-08-03T12:57:03;37.20;54.00
52675;DHT22;38569;52.722;6.440;2022-08-03T12:59:35;37.60;53.30
52675;DHT22;38569;52.722;6.440;2022-08-03T13:02:04;37.40;53.80
52675;DHT22;38569;52.722;6.440;2022-08-03T13:04:34;37.20;53.70
52675;DHT22;38569;52.722;6.440;2022-08-03T13:07:07;37.10;53.30
52675;DHT22;38569;52.722;6.440;2022-08-03T13:12:09;37.00;53.60
52675;DHT22;38569;52.722;6.440;2022-08-03T13:14:35;36.90;53.70
52675;DHT22;38569;52.722;6.440;2022-08-03T13:17:02;37.00;53.40
52675;DHT22;38569;52.722;6.440;2022-08-03T13:19:27;37.00;52.90
52675;DHT22;38569;52.722;6.440;2022-08-03T13:21:53;36.80;52.60
52675;DHT22;38569;52.722;6.440;2022-08-03T13:24:19;36.70;53.60
52675;DHT22;38569;52.722;6.440;2022-08-03T13:26:44;36.60;54.30
52675;DHT22;38569;52.722;6.440;2022-08-03T13:29:10;36.50;53.50
52675;DHT22;38569;52.722;6.440;2022-08-03T13:31:36;36.50;53.00
52675;DHT22;38569;52.722;6.440;2022-08-03T13:34:02;36.20;53.00
52675;DHT22;38569;52.722;6.440;2022-08-03T13:36:27;36.50;53.70
52675;DHT22;38569;52.722;6.440;2022-08-03T13:38:53;36.90;52.90
52675;DHT22;38569;52.722;6.440;2022-08-03T13:41:19;36.40;53.80
52675;DHT22;38569;52.722;6.440;2022-08-03T13:43:44;36.30;53.30
52675;DHT22;38569;52.722;6.440;2022-08-03T13:46:10;36.20;53.10
52675;DHT22;38569;52.722;6.440;2022-08-03T13:48:35;36.00;53.60
52675;DHT22;38569;52.722;6.440;2022-08-03T13:51:01;36.00;53.70
52675;DHT22;38569;52.722;6.440;2022-08-03T13:53:27;36.00;54.40
52675;DHT22;38569;52.722;6.440;2022-08-03T13:55:53;35.90;53.00
52675;DHT22;38569;52.722;6.440;2022-08-03T13:58:18;36.00;53.40
52675;DHT22;38569;52.722;6.440;2022-08-03T14:00:44;36.10;53.60
52675;DHT22;38569;52.722;6.440;2022-08-03T14:03:10;36.40;53.80
52675;DHT22;38569;52.722;6.440;2022-08-03T14:05:35;36.40;52.80
52675;DHT22;38569;52.722;6.440;2022-08-03T14:08:03;36.40;53.00
52675;DHT22;38569;52.722;6.440;2022-08-03T14:10:36;36.50;53.20
52675;DHT22;38569;52.722;6.440;2022-08-03T14:13:03;36.20;52.60
52675;DHT22;38569;52.722;6.440;2022-08-03T14:15:30;36.10;53.70
52675;DHT22;38569;52.722;6.440;2022-08-03T14:17:55;36.00;53.60
52675;DHT22;38569;52.722;6.440;2022-08-03T14:20:21;35.80;53.60
52675;DHT22;38569;52.722;6.440;2022-08-03T14:22:47;35.60;53.90
52675;DHT22;38569;52.722;6.440;2022-08-03T14:25:13;35.60;54.50
52675;DHT22;38569;52.722;6.440;2022-08-03T14:27:38;35.40;52.40
52675;DHT22;38569;52.722;6.440;2022-08-03T14:30:04;35.20;52.70
52675;DHT22;38569;52.722;6.440;2022-08-03T14:32:30;35.10;52.90
52675;DHT22;38569;52.722;6.440;2022-08-03T14:34:56;35.20;52.60
52675;DHT22;38569;52.722;6.440;2022-08-03T14:37:21;35.00;52.60
52675;DHT22;38569;52.722;6.440;2022-08-03T14:39:47;34.90;52.20
52675;DHT22;38569;52.722;6.440;2022-08-03T14:42:13;34.50;51.00
52675;DHT22;38569;52.722;6.440;2022-08-03T14:44:40;34.30;52.40
52675;DHT22;38569;52.722;6.440;2022-08-03T14:47:06;34.20;52.60
52675;DHT22;38569;52.722;6.440;2022-08-03T14:49:31;34.30;53.00
52675;DHT22;38569;52.722;6.440;2022-08-03T14:51:57;34.40;52.50
52675;DHT22;38569;52.722;6.440;2022-08-03T14:54:23;34.10;53.60
52675;DHT22;38569;52.722;6.440;2022-08-03T14:56:49;34.10;53.40
52675;DHT22;38569;52.722;6.440;2022-08-03T14:59:15;34.00;53.50
52675;DHT22;38569;52.722;6.440;2022-08-03T15:01:41;34.00;53.90
52675;DHT22;38569;52.722;6.440;2022-08-03T15:04:06;34.10;53.90
52675;DHT22;38569;52.722;6.440;2022-08-03T15:06:32;34.30;54.80
52675;DHT22;38569;52.722;6.440;2022-08-03T15:08:58;34.30;54.40
52675;DHT22;38569;52.722;6.440;2022-08-03T15:11:23;34.30;54.10
52675;DHT22;38569;52.722;6.440;2022-08-03T15:13:49;34.20;54.90
52675;DHT22;38569;52.722;6.440;2022-08-03T15:16:15;34.40;54.50
52675;DHT22;38569;52.722;6.440;2022-08-03T15:18:40;34.50;54.60
52675;DHT22;38569;52.722;6.440;2022-08-03T15:21:06;34.50;54.40
52675;DHT22;38569;52.722;6.440;2022-08-03T15:23:32;34.40;54.40
52675;DHT22;38569;52.722;6.440;2022-08-03T15:25:57;34.10;54.40
52675;DHT22;38569;52.722;6.440;2022-08-03T15:28:23;34.00;54.40
52675;DHT22;38569;52.722;6.440;2022-08-03T15:30:51;33.80;55.00
52675;DHT22;38569;52.722;6.440;2022-08-03T15:33:16;33.80;55.30
52675;DHT22;38569;52.722;6.440;2022-08-03T15:35:42;33.80;55.20
52675;DHT22;38569;52.722;6.440;2022-08-03T15:38:08;33.60;55.10
52675;DHT22;38569;52.722;6.440;2022-08-03T15:40:34;33.50;55.60
52675;DHT22;38569;52.722;6.440;2022-08-03T15:42:59;33.40;56.00
52675;DHT22;38569;52.722;6.440;2022-08-03T15:45:26;33.30;56.70
52675;DHT22;38569;52.722;6.440;2022-08-03T15:47:52;33.30;56.70
52675;DHT22;38569;52.722;6.440;2022-08-03T15:50:18;33.30;57.10
52675;DHT22;38569;52.722;6.440;2022-08-03T15:52:44;33.30;57.20
52675;DHT22;38569;52.722;6.440;2022-08-03T15:55:09;33.20;57.20
52675;DHT22;38569;52.722;6.440;2022-08-03T15:57:35;33.10;57.40
52675;DHT22;38569;52.722;6.440;2022-08-03T16:00:04;33.00;57.80
52675;DHT22;38569;52.722;6.440;2022-08-03T16:02:30;32.80;58.00
52675;DHT22;38569;52.722;6.440;2022-08-03T16:04:57;32.70;58.60
52675;DHT22;38569;52.722;6.440;2022-08-03T16:07:22;32.50;59.00
52675;DHT22;38569;52.722;6.440;2022-08-03T16:10:11;32.20;59.40
52675;DHT22;38569;52.722;6.440;2022-08-03T16:12:37;32.20;60.00
52675;DHT22;38569;52.722;6.440;2022-08-03T16:15:04;32.10;60.40